Time;durP1;ratioP1;P1;durP2;ratioP2;P2;SDS_P1;SDS_P2;PMS_P1;PMS_P2;Temp;Humidity;BMP_temperature;BMP_pressure;BME280_temperature;BME280_humidity;BME280_pressure;Samples;Min_cycle;Max_cycle;Signal;HPM_P1;HPM_P2
2021/01/06 00:00:30;;;;;;;13.18;8.27;;;;;;;4.00;69.34;101034.34;5012813;28;20064;-90
2021/01/06 00:02:55;;;;;;;11.85;7.68;;;;;;;4.08;69.38;101032.34;5014380;28;20464;-89
2021/01/06 00:05:24;;;;;;;14.13;8.38;;;;;;;3.87;70.15;101024.31;5015179;28;20033;-88
2021/01/06 00:07:49;;;;;;;13.35;7.68;;;;;;;3.88;69.85;101020.81;5013313;28;20030;-89
2021/01/06 00:10:24;;;;;;;13.15;7.07;;;;;;;3.82;70.09;101018.41;5012586;28;20049;-89
2021/01/06 00:12:50;;;;;;;14.43;7.78;;;;;;;3.97;69.10;101030.94;5013996;28;20302;-89
2021/01/06 00:15:22;;;;;;;13.35;8.18;;;;;;;3.81;69.41;101006.34;5013597;28;20040;-90
2021/01/06 00:17:47;;;;;;;10.75;7.40;;;;;;;3.75;69.72;101017.75;5012821;28;20543;-89
2021/01/06 00:20:13;;;;;;;11.07;7.78;;;;;;;3.93;69.57;101018.94;5013618;28;20033;-89
2021/01/06 00:22:39;;;;;;;13.65;8.05;;;;;;;3.94;69.28;101015.44;5012283;28;20113;-89
2021/01/06 00:25:06;;;;;;;12.90;8.80;;;;;;;3.82;69.92;101018.41;5013696;28;20472;-90
2021/01/06 00:27:31;;;;;;;12.27;8.70;;;;;;;3.87;69.92;101021.72;5026545;28;20026;-89
2021/01/06 00:29:57;;;;;;;12.30;8.73;;;;;;;3.79;70.21;101021.09;5030204;28;20056;-88
2021/01/06 00:32:22;;;;;;;16.85;9.10;;;;;;;3.69;70.58;101017.94;5029608;28;20030;-89
2021/01/06 00:34:47;;;;;;;15.10;9.00;;;;;;;3.83;69.80;101025.31;5014833;28;20476;-89
2021/01/06 00:37:14;;;;;;;12.65;7.97;;;;;;;3.87;69.43;101026.94;5013142;28;20115;-89
2021/01/06 00:39:39;;;;;;;19.40;11.70;;;;;;;3.77;69.75;101004.69;5012450;28;20045;-89
2021/01/06 00:42:05;;;;;;;17.23;9.20;;;;;;;3.75;69.36;101004.75;5013525;28;20029;-89
2021/01/06 00:44:30;;;;;;;17.65;9.52;;;;;;;3.41;71.26;101015.28;5011911;28;20411;-90
2021/01/06 00:46:55;;;;;;;18.85;10.23;;;;;;;3.66;70.81;101022.38;5013356;28;20120;-89
2021/01/06 00:49:21;;;;;;;20.00;11.27;;;;;;;3.90;69.79;101012.97;5012932;28;20036;-90
2021/01/06 00:51:49;;;;;;;14.07;9.40;;;;;;;3.85;69.56;101002.75;5012945;28;20037;-89
2021/01/06 00:54:15;;;;;;;14.38;10.40;;;;;;;3.69;70.33;101014.47;5012053;28;20049;-89
2021/01/06 00:56:40;;;;;;;16.00;10.27;;;;;;;3.69;70.11;101022.25;5011790;28;20465;-89
2021/01/06 00:59:05;;;;;;;14.25;10.23;;;;;;;3.73;70.50;101013.47;5011654;28;20499;-89
2021/01/06 01:01:31;;;;;;;17.02;10.38;;;;;;;3.64;70.33;100999.03;5011576;28;20030;-89
2021/01/06 01:03:57;;;;;;;14.82;10.95;;;;;;;3.69;70.93;101014.47;5013151;28;20145;-89
2021/01/06 01:06:32;;;;;;;16.15;9.98;;;;;;;3.71;70.37;101016.16;5012893;28;20029;-89
2021/01/06 01:08:59;;;;;;;17.67;11.15;;;;;;;3.75;69.88;101003.88;5011899;28;20455;-89
2021/01/06 01:11:25;;;;;;;16.15;10.52;;;;;;;3.64;70.63;101016.38;5013423;28;20022;-89
2021/01/06 01:13:52;;;;;;;14.90;11.40;;;;;;;3.51;71.54;101005.47;5012239;28;20365;-90
2021/01/06 01:16:19;;;;;;;19.40;11.02;;;;;;;3.54;71.32;101002.81;5011869;28;20029;-89
2021/01/06 01:18:44;;;;;;;17.67;10.10;;;;;;;3.45;72.14;101018.63;5012008;28;20026;-89
2021/01/06 01:21:10;;;;;;;14.80;10.32;;;;;;;3.48;72.13;101008.19;5035725;28;20024;-89
2021/01/06 01:23:35;;;;;;;16.10;10.07;;;;;;;3.53;71.91;101017.50;5034923;28;20018;-89
2021/01/06 01:26:01;;;;;;;15.48;10.02;;;;;;;3.41;72.45;101010.06;5036015;28;20033;-89
2021/01/06 01:28:27;;;;;;;18.95;10.30;;;;;;;3.75;71.74;101011.69;5035654;28;20064;-88
2021/01/06 01:30:53;;;;;;;17.00;10.40;;;;;;;3.85;71.29;101015.72;5037461;28;20037;-89
2021/01/06 01:33:21;;;;;;;14.77;9.98;;;;;;;3.95;70.08;101016.31;5036884;28;20003;-89
2021/01/06 01:35:46;;;;;;;17.63;9.18;;;;;;;3.85;70.01;100997.53;5037398;28;20026;-90
2021/01/06 01:38:18;;;;;;;14.88;10.27;;;;;;;3.75;71.07;101012.56;5028706;28;20030;-90
2021/01/06 01:40:44;;;;;;;15.07;8.98;;;;;;;4.08;69.40;101011.56;5016344;28;20038;-89
2021/01/06 01:43:12;;;;;;;14.75;9.80;;;;;;;3.95;70.07;101019.75;5017332;28;20475;-90
2021/01/06 01:45:46;;;;;;;14.77;8.98;;;;;;;4.00;69.49;101022.19;5017190;28;20033;-90
2021/01/06 01:48:27;;;;;;;15.52;9.20;;;;;;;3.81;70.90;101008.06;5014857;28;20063;-90
2021/01/06 01:50:55;;;;;;;13.25;8.65;;;;;;;3.91;69.69;101002.56;5018299;28;20034;-90
2021/01/06 01:53:31;;;;;;;16.63;9.50;;;;;;;3.85;70.07;101012.25;5016106;28;20022;-88
2021/01/06 01:55:59;;;;;;;11.60;8.90;;;;;;;3.89;69.30;100999.16;5016272;28;20088;-89
2021/01/06 01:58:27;;;;;;;22.45;11.88;;;;;;;3.93;69.87;101018.94;5015598;28;20057;-90
2021/01/06 02:00:55;;;;;;;14.45;8.75;;;;;;;4.01;69.10;101013.50;5015179;28;20116;-90
2021/01/06 02:03:47;;;;;;;18.08;9.02;;;;;;;4.04;69.83;101017.75;5015582;28;20030;-90
2021/01/06 02:06:18;;;;;;;13.98;9.05;;;;;;;4.02;69.93;101020.41;5015327;28;20030;-90
2021/01/06 02:08:53;;;;;;;10.43;8.32;;;;;;;4.01;69.52;101013.50;5019478;28;20109;-91
2021/01/06 02:11:28;;;;;;;13.48;8.10;;;;;;;3.98;69.52;101006.63;5023687;28;20488;-90
2021/01/06 02:13:59;;;;;;;14.30;8.10;;;;;;;4.05;69.02;101017.72;5023003;28;20022;-91
2021/01/06 02:16:42;;;;;;;13.48;8.73;;;;;;;4.08;68.68;101019.34;5016802;28;20033;-90
2021/01/06 02:19:11;;;;;;;15.05;8.57;;;;;;;4.11;69.30;101014.91;5015269;28;20053;-90
2021/01/06 02:21:37;;;;;;;12.45;8.73;;;;;;;3.96;69.93;101005.84;5015514;28;20026;-90
2021/01/06 02:24:02;;;;;;;12.75;8.00;;;;;;;4.00;69.54;101008.34;5013589;28;20116;-89
2021/01/06 02:26:29;;;;;;;10.10;8.30;;;;;;;3.94;69.51;101007.63;5015240;28;20037;-90
2021/01/06 02:28:56;;;;;;;14.50;8.45;;;;;;;4.10;69.31;101022.75;5014882;28;20033;-90
2021/01/06 02:31:23;;;;;;;14.20;8.95;;;;;;;3.95;69.61;101018.91;5014142;28;20029;-90
2021/01/06 02:33:49;;;;;;;13.05;8.07;;;;;;;4.14;69.49;101012.22;5024411;28;20032;-90
2021/01/06 02:36:15;;;;;;;12.68;7.80;;;;;;;4.02;69.52;101015.19;5024766;28;20025;-90
2021/01/06 02:38:42;;;;;;;11.82;8.20;;;;;;;4.14;69.51;101008.75;5025338;28;20029;-90
2021/01/06 02:41:07;;;;;;;12.48;7.90;;;;;;;4.12;69.25;100993.22;5025649;28;20037;-89
2021/01/06 02:43:33;;;;;;;14.98;8.77;;;;;;;4.11;68.85;101006.28;5022590;28;20030;-90
2021/01/06 02:45:59;;;;;;;14.63;8.55;;;;;;;4.11;68.98;101009.72;5013252;28;20030;-89
2021/01/06 02:48:25;;;;;;;14.95;8.23;;;;;;;4.16;68.54;101007.81;5014623;28;20030;-89
2021/01/06 02:50:55;;;;;;;14.32;9.05;;;;;;;4.02;68.56;101003.97;5009906;28;20034;-88
2021/01/06 02:53:47;;;;;;;15.27;9.52;;;;;;;4.21;69.53;101002.47;5009818;28;20125;-89
2021/01/06 02:56:14;;;;;;;12.52;8.75;;;;;;;4.15;70.03;101005.28;5004543;28;20026;-89
2021/01/06 02:58:40;;;;;;;17.60;9.27;;;;;;;4.18;68.78;100989.56;5012994;28;20026;-89
2021/01/06 03:01:10;;;;;;;17.75;9.23;;;;;;;4.31;68.31;100993.47;5013743;28;20026;-89
2021/01/06 03:03:39;;;;;;;16.38;9.65;;;;;;;4.24;68.54;100997.16;5013619;28;20026;-89
2021/01/06 03:06:12;;;;;;;10.50;8.00;;;;;;;4.23;68.70;100995.50;5013178;28;20062;-88
2021/01/06 03:08:38;;;;;;;15.23;7.80;;;;;;;4.32;69.32;100999.53;5013157;28;20143;-89
2021/01/06 03:11:05;;;;;;;17.40;9.52;;;;;;;4.27;69.45;100997.09;5013312;28;20034;-89
2021/01/06 03:13:31;;;;;;;16.88;8.65;;;;;;;4.28;68.79;100990.13;5011795;28;20435;-89
2021/01/06 03:15:57;;;;;;;11.23;8.40;;;;;;;4.43;69.01;100999.19;5011182;28;20036;-89
2021/01/06 03:18:23;;;;;;;13.15;7.30;;;;;;;4.37;68.58;100990.69;5013735;28;20037;-89
2021/01/06 03:20:51;;;;;;;10.85;7.38;;;;;;;4.35;68.42;100978.66;5013448;28;20038;-89
2021/01/06 03:23:30;;;;;;;10.73;7.65;;;;;;;4.29;68.90;100984.88;5014016;28;20114;-88
2021/01/06 03:25:58;;;;;;;9.63;6.78;;;;;;;4.49;68.00;100992.03;5013708;28;20034;-89
2021/01/06 03:28:27;;;;;;;14.00;7.78;;;;;;;4.37;68.11;100984.63;5012653;28;20030;-88
2021/01/06 03:30:55;;;;;;;9.18;6.47;;;;;;;4.26;69.03;100971.97;5012956;28;20030;-88
2021/01/06 03:33:23;;;;;;;11.95;6.90;;;;;;;4.18;69.66;100984.38;5028141;28;20029;-88
2021/01/06 03:35:53;;;;;;;16.70;7.63;;;;;;;4.50;68.63;100972.94;5013321;28;20116;-88
2021/01/06 03:38:41;;;;;;;12.65;7.15;;;;;;;4.57;67.28;100960.56;5013694;28;20494;-87
2021/01/06 03:41:08;;;;;;;11.07;6.82;;;;;;;4.56;68.18;100972.72;5011639;28;20038;-88
2021/01/06 03:43:40;;;;;;;10.27;6.68;;;;;;;4.25;68.93;100965.09;5012167;28;20403;-88
2021/01/06 03:46:32;;;;;;;;;;;;;;;4.47;68.29;100969.59;5013572;28;20021;-88
2021/01/06 03:49:13;;;;;;;31.73;9.03;;;;;;;4.28;69.25;100967.56;5008322;28;19922;-88
2021/01/06 03:51:43;;;;;;;12.38;6.80;;;;;;;4.22;68.81;100949.59;5013382;28;20107;-89
2021/01/06 03:54:21;;;;;;;15.60;7.30;;;;;;;4.34;69.04;100967.41;5013063;28;20022;-88
2021/01/06 03:56:47;;;;;;;13.50;7.40;;;;;;;4.59;68.27;100965.72;5012946;28;20039;-89
2021/01/06 03:59:19;;;;;;;11.60;7.47;;;;;;;4.52;68.37;100965.06;5012950;28;20025;-90
2021/01/06 04:01:47;;;;;;;;;;;;;;;4.61;67.94;100956.13;5011077;28;20018;-88
2021/01/06 04:04:15;;;;;;;10.77;6.28;;;;;;;4.60;68.35;100959.59;5011514;28;19913;-89
2021/01/06 04:06:44;;;;;;;12.38;6.93;;;;;;;4.31;68.65;100951.88;5011455;28;20022;-88
2021/01/06 04:09:19;;;;;;;11.13;7.63;;;;;;;4.45;67.71;100948.00;5011692;28;20029;-89
2021/01/06 04:11:55;;;;;;;11.73;6.57;;;;;;;4.48;68.23;100940.94;5013191;28;20037;-89
2021/01/06 04:14:21;;;;;;;12.38;6.70;;;;;;;4.24;68.19;100937.38;5013078;28;20029;-89
2021/01/06 04:16:46;;;;;;;17.63;8.48;;;;;;;4.33;68.73;100950.09;5012098;28;20030;-89
2021/01/06 04:19:11;;;;;;;15.38;6.95;;;;;;;4.45;67.73;100950.59;5013189;28;20033;-89
2021/01/06 04:21:37;;;;;;;13.25;6.72;;;;;;;4.42;68.09;100935.91;5013377;28;20034;-89
2021/01/06 04:24:02;;;;;;;13.45;6.50;;;;;;;4.51;68.22;100947.78;5013738;28;20476;-89
2021/01/06 04:26:27;;;;;;;12.68;7.38;;;;;;;4.24;69.06;100936.53;5012317;28;20022;-89
2021/01/06 04:28:53;;;;;;;12.82;6.82;;;;;;;4.24;67.77;100932.19;5012818;28;20026;-89
2021/01/06 04:31:20;;;;;;;13.63;7.40;;;;;;;4.24;68.17;100939.97;5013452;28;20064;-89
2021/01/06 04:33:48;;;;;;;11.05;6.53;;;;;;;4.44;68.49;100939.31;5012607;28;20495;-89
2021/01/06 04:36:23;;;;;;;11.23;7.50;;;;;;;4.36;67.62;100941.31;5013654;28;20028;-89
2021/01/06 04:38:52;;;;;;;11.85;7.55;;;;;;;4.23;68.11;100932.25;5012732;28;20026;-89
2021/01/06 04:41:31;;;;;;;12.75;7.15;;;;;;;4.03;69.57;100931.16;5011321;28;20026;-89
2021/01/06 04:44:34;;;;;;;9.00;7.25;;;;;;;4.41;68.79;100936.00;5012564;28;20504;-89
2021/01/06 04:47:41;;;;;;;15.38;7.28;;;;;;;4.05;68.94;100931.09;5012420;28;20041;-90
2021/01/06 04:50:25;;;;;;;10.63;6.97;;;;;;;4.00;68.81;100923.44;5012469;28;20127;-89
2021/01/06 04:53:05;;;;;;;10.98;7.50;;;;;;;4.36;68.12;100930.94;4993022;28;20041;-89
2021/01/06 04:55:55;;;;;;;10.82;7.57;;;;;;;4.19;68.71;100921.09;5005314;28;20152;-89
2021/01/06 04:58:58;;;;;;;18.13;7.20;;;;;;;4.23;67.24;100932.25;5012119;28;20045;-89
2021/01/06 05:01:41;;;;;;;14.10;7.57;;;;;;;4.22;68.12;100917.56;5012068;28;20042;-89
2021/01/06 05:04:27;;;;;;;10.25;7.50;;;;;;;4.12;68.32;100932.59;5012394;28;20100;-88
2021/01/06 05:07:02;;;;;;;13.30;7.40;;;;;;;3.94;68.37;100924.50;5012222;28;20101;-89
2021/01/06 05:09:52;;;;;;;15.25;8.32;;;;;;;3.89;69.07;100929.00;5011851;28;20057;-89
2021/01/06 05:12:24;;;;;;;14.07;7.93;;;;;;;3.97;68.43;100931.38;5010506;28;20036;-88
2021/01/06 05:14:54;;;;;;;10.80;7.50;;;;;;;3.71;69.55;100916.56;5010949;28;20030;-89
2021/01/06 05:17:20;;;;;;;10.60;7.50;;;;;;;3.90;68.77;100922.91;5012297;28;20038;-89
2021/01/06 05:19:50;;;;;;;8.13;6.80;;;;;;;3.90;68.24;100916.84;5012265;28;20033;-89
2021/01/06 05:22:16;;;;;;;14.30;7.88;;;;;;;3.90;69.10;100922.91;5011987;28;20423;-89
2021/01/06 05:24:44;;;;;;;14.38;8.15;;;;;;;3.95;68.88;100925.38;5010768;28;20022;-88
2021/01/06 05:27:12;;;;;;;9.38;7.57;;;;;;;3.83;69.03;100924.00;5011675;28;20030;-88
2021/01/06 05:29:59;;;;;;;11.57;7.10;;;;;;;3.83;68.90;100897.16;5011685;28;20048;-89
2021/01/06 05:32:33;;;;;;;14.02;8.45;;;;;;;3.69;68.99;100911.47;5010566;28;20109;-89
2021/01/06 05:35:04;;;;;;;10.75;7.03;;;;;;;3.84;69.11;100920.50;5012150;28;20384;-88
2021/01/06 05:37:30;;;;;;;17.45;8.70;;;;;;;3.71;69.81;100921.78;5010879;28;20064;-88
2021/01/06 05:40:00;;;;;;;16.65;9.57;;;;;;;3.60;70.05;100914.31;5010635;28;20026;-89
2021/01/06 05:42:27;;;;;;;15.25;7.93;;;;;;;3.88;69.37;100922.09;5010714;28;20025;-89
2021/01/06 05:44:55;;;;;;;12.15;8.73;;;;;;;3.83;69.67;100916.22;5011957;28;20034;-89
2021/01/06 05:47:52;;;;;;;17.85;8.95;;;;;;;3.92;69.64;100915.91;5011408;28;20026;-89
2021/01/06 05:50:25;;;;;;;15.77;8.05;;;;;;;4.09;69.50;100932.72;4990289;28;20120;-89
2021/01/06 05:52:58;;;;;;;12.95;8.50;;;;;;;4.15;69.58;100928.16;5012001;28;20113;-89
2021/01/06 05:55:24;;;;;;;13.13;8.00;;;;;;;3.91;69.64;100914.22;5011679;28;20028;-90
2021/01/06 05:58:09;;;;;;;10.50;7.03;;;;;;;4.18;69.34;100932.41;5011267;28;20105;-89
2021/01/06 06:00:41;;;;;;;12.70;8.27;;;;;;;4.06;70.17;100927.59;5009806;28;20391;-89
2021/01/06 06:03:39;;;;;;;16.17;8.38;;;;;;;4.22;69.41;100933.97;5011256;28;20117;-89
2021/01/06 06:06:07;;;;;;;11.30;7.95;;;;;;;4.16;68.63;100935.03;5011349;28;20029;-89
2021/01/06 06:09:07;;;;;;;15.00;8.57;;;;;;;4.31;69.18;100938.06;5011627;28;20049;-89
2021/01/06 06:11:51;;;;;;;12.55;8.02;;;;;;;4.28;69.35;100936.38;5011291;28;20112;-89
2021/01/06 06:14:25;;;;;;;15.77;8.40;;;;;;;4.02;69.69;100944.19;5012611;28;20101;-89
2021/01/06 06:17:07;;;;;;;13.00;8.02;;;;;;;3.92;69.69;100952.28;5011769;28;20030;-89
2021/01/06 06:20:03;;;;;;;11.15;7.15;;;;;;;4.17;69.15;100941.09;5011638;28;20551;-89
2021/01/06 06:22:34;;;;;;;13.50;9.48;;;;;;;4.00;70.57;100938.19;5011526;28;20046;-89
2021/01/06 06:25:16;;;;;;;14.68;9.77;;;;;;;4.23;68.49;100942.66;5011666;28;20025;-89
2021/01/06 06:28:13;;;;;;;13.68;10.30;;;;;;;4.10;69.01;100939.59;5012701;28;20052;-89
2021/01/06 06:30:38;;;;;;;13.48;9.00;;;;;;;4.01;69.60;100948.56;5010329;28;20491;-88
2021/01/06 06:33:18;;;;;;;12.38;9.93;;;;;;;4.19;69.87;100952.31;5013720;28;20031;-89
2021/01/06 06:35:49;;;;;;;14.43;9.75;;;;;;;4.05;70.46;100938.88;5013504;28;20112;-89
2021/01/06 06:38:16;;;;;;;14.95;10.18;;;;;;;3.95;70.39;100954.78;5015000;28;20030;-89
2021/01/06 06:40:50;;;;;;;13.70;9.50;;;;;;;4.12;70.71;100953.38;5014953;28;20511;-89
2021/01/06 06:43:39;;;;;;;18.10;10.02;;;;;;;4.12;70.08;100954.22;5014523;28;20101;-89
2021/01/06 06:46:22;;;;;;;15.57;9.82;;;;;;;4.27;70.13;100958.09;5014503;28;20405;-89
2021/01/06 06:49:20;;;;;;;13.95;9.90;;;;;;;4.32;69.68;100958.78;5015779;28;20113;-89
2021/01/06 06:52:26;;;;;;;12.63;8.90;;;;;;;4.41;69.63;100962.00;5015160;28;20030;-90
2021/01/06 06:55:10;;;;;;;11.82;8.93;;;;;;;4.49;69.62;100967.78;5002137;28;20068;-88
2021/01/06 06:57:42;;;;;;;12.90;8.48;;;;;;;4.51;68.88;100963.38;5015019;28;20101;-89
2021/01/06 07:00:18;;;;;;;12.55;8.57;;;;;;;4.54;70.03;100971.94;5014352;28;20036;-88
2021/01/06 07:02:55;;;;;;;15.95;9.02;;;;;;;4.59;68.62;100969.16;5014037;28;20041;-89
2021/01/06 07:05:30;;;;;;;15.73;8.27;;;;;;;4.67;68.33;100963.69;5014486;28;20022;-89
2021/01/06 07:08:01;;;;;;;17.80;8.88;;;;;;;4.68;68.68;100968.84;5014100;28;20025;-89
2021/01/06 07:10:31;;;;;;;9.48;7.45;;;;;;;4.55;69.17;100968.41;5014116;28;20030;-89
2021/01/06 07:13:08;;;;;;;10.00;7.75;;;;;;;4.75;68.13;100967.72;4997750;28;20384;-89
2021/01/06 07:15:40;;;;;;;14.20;8.10;;;;;;;4.74;68.22;100971.25;5013056;28;20030;-89
2021/01/06 07:18:30;;;;;;;13.50;6.72;;;;;;;4.73;68.46;100964.31;5014770;28;20112;-88
2021/01/06 07:21:22;;;;;;;12.75;8.02;;;;;;;4.56;68.56;100972.72;5014011;28;20108;-89
2021/01/06 07:24:06;;;;;;;10.57;7.65;;;;;;;4.57;68.75;100976.16;5011682;28;20041;-89
2021/01/06 07:26:53;;;;;;;9.35;7.22;;;;;;;4.86;68.03;100971.69;5012569;28;20034;-88
2021/01/06 07:29:20;;;;;;;10.88;7.00;;;;;;;4.86;68.08;100969.09;5028093;28;20033;-88
2021/01/06 07:31:58;;;;;;;9.98;7.68;;;;;;;4.54;68.17;100968.47;5012583;28;20025;-88
2021/01/06 07:34:37;;;;;;;14.25;9.00;;;;;;;4.81;68.38;100974.47;5012384;28;20113;-88
2021/01/06 07:37:04;;;;;;;17.00;8.63;;;;;;;4.86;68.07;100972.56;5013405;28;20022;-89
2021/01/06 07:39:35;;;;;;;9.52;7.82;;;;;;;4.85;68.16;100967.41;5013911;28;20423;-89
2021/01/06 07:42:05;;;;;;;13.20;8.30;;;;;;;4.67;69.07;100976.72;5012095;28;20056;-89
2021/01/06 07:44:36;;;;;;;12.77;8.93;;;;;;;4.75;69.62;100967.72;5012967;28;20053;-88
2021/01/06 07:47:01;;;;;;;12.98;8.18;;;;;;;4.74;69.10;100968.66;5013463;28;20022;-88
2021/01/06 07:49:46;;;;;;;9.93;8.15;;;;;;;4.87;68.66;100979.47;5013069;28;20092;-89
2021/01/06 07:52:20;;;;;;;14.80;8.93;;;;;;;4.77;68.86;100970.28;5012937;28;20056;-89
2021/01/06 07:54:53;;;;;;;13.25;8.80;;;;;;;4.50;69.89;100979.88;5014498;28;20034;-88
2021/01/06 07:57:33;;;;;;;18.20;9.10;;;;;;;4.47;69.71;100960.03;5013208;28;20045;-89
2021/01/06 08:00:02;;;;;;;11.95;9.18;;;;;;;4.70;68.66;100973.97;5012465;28;20112;-88
2021/01/06 08:02:37;;;;;;;13.73;9.52;;;;;;;4.49;69.02;100972.97;5013456;28;20037;-89
2021/01/06 08:05:22;;;;;;;12.73;9.13;;;;;;;4.26;69.64;100968.53;5012339;28;20372;-89
2021/01/06 08:07:48;;;;;;;15.98;9.00;;;;;;;4.47;69.12;100979.97;5002415;28;20029;-89
2021/01/06 08:10:34;;;;;;;22.00;11.10;;;;;;;4.45;70.28;100974.00;5013340;28;20030;-89
2021/01/06 08:13:21;;;;;;;14.10;9.65;;;;;;;4.42;69.22;100981.88;5002301;28;20117;-89
2021/01/06 08:15:51;;;;;;;14.80;10.00;;;;;;;4.39;70.15;100987.19;5012453;28;20431;-88
2021/01/06 08:18:29;;;;;;;24.20;10.55;;;;;;;4.28;70.56;100996.16;5013371;28;20062;-88
2021/01/06 08:21:02;;;;;;;12.25;9.50;;;;;;;4.54;68.76;100990.13;5012901;28;20564;-89
2021/01/06 08:23:47;;;;;;;16.40;9.40;;;;;;;4.56;69.61;100990.06;5011292;28;20058;-89
2021/01/06 08:26:21;;;;;;;14.68;9.73;;;;;;;4.81;68.71;100999.66;5011352;28;20029;-89
2021/01/06 08:28:46;;;;;;;13.18;9.32;;;;;;;4.89;68.76;101002.81;5010681;28;20484;-89
2021/01/06 08:31:18;;;;;;;14.93;8.68;;;;;;;4.76;68.88;100998.06;5012661;28;20060;-89
2021/01/06 08:33:54;;;;;;;13.65;9.20;;;;;;;4.84;69.26;101007.31;5011534;28;20053;-88
2021/01/06 08:36:32;;;;;;;17.40;11.27;;;;;;;4.68;68.22;101007.00;5012824;28;20029;-89
2021/01/06 08:39:29;;;;;;;12.35;8.63;;;;;;;4.80;68.89;101016.16;5012222;28;20116;-89
2021/01/06 08:42:05;;;;;;;12.82;9.02;;;;;;;4.85;69.16;101009.03;5002765;28;20045;-90
2021/01/06 08:44:42;;;;;;;14.15;9.30;;;;;;;4.94;67.91;101008.72;5011882;28;20558;-90
2021/01/06 08:47:13;;;;;;;18.85;9.60;;;;;;;4.79;68.40;101011.84;5011869;28;20064;-90
2021/01/06 08:49:45;;;;;;;17.25;8.93;;;;;;;4.82;68.51;100998.72;5017191;28;20056;-90
2021/01/06 08:52:16;;;;;;;17.33;8.52;;;;;;;5.06;68.16;101010.06;5021023;28;20038;-89
2021/01/06 08:54:44;;;;;;;11.88;8.65;;;;;;;5.01;68.49;101002.41;5019604;28;20053;-90
2021/01/06 08:57:23;;;;;;;17.33;9.00;;;;;;;4.88;68.64;100985.53;5021876;28;20057;-89
2021/01/06 08:59:48;;;;;;;10.80;7.97;;;;;;;4.96;68.80;100999.13;5015000;28;20034;-90
2021/01/06 09:02:17;;;;;;;12.57;8.73;;;;;;;5.18;66.83;101003.56;5011650;28;20468;-90
2021/01/06 09:04:44;;;;;;;11.93;8.65;;;;;;;5.18;67.28;101007.00;5011313;28;20033;-90
2021/01/06 09:07:22;;;;;;;12.77;8.77;;;;;;;5.18;67.92;100995.75;5009072;28;20033;-90
2021/01/06 09:10:16;;;;;;;10.77;8.82;;;;;;;5.25;68.09;101008.50;5009624;28;20432;-90
2021/01/06 09:13:04;;;;;;;10.85;8.55;;;;;;;5.07;68.07;101014.34;5009592;28;20112;-90
2021/01/06 09:15:48;;;;;;;16.00;7.80;;;;;;;5.22;68.84;101007.75;5003176;28;20023;-89
2021/01/06 09:18:20;;;;;;;14.07;8.63;;;;;;;5.41;67.38;101003.59;5003411;28;20018;-89
2021/01/06 09:21:03;;;;;;;15.30;8.02;;;;;;;5.31;67.95;101010.00;5007826;28;20034;-89
2021/01/06 09:23:30;;;;;;;14.95;8.95;;;;;;;5.38;67.14;101011.50;5009972;28;20030;-89
2021/01/06 09:25:58;;;;;;;11.60;7.97;;;;;;;5.16;68.11;101017.47;5011742;28;20400;-89
2021/01/06 09:28:25;;;;;;;13.90;8.25;;;;;;;5.19;67.38;100995.69;5009027;28;20034;-89
2021/01/06 09:30:51;;;;;;;13.13;8.20;;;;;;;5.37;67.21;101004.56;5010335;28;20168;-89
2021/01/06 09:33:25;;;;;;;16.05;7.82;;;;;;;5.57;66.87;101017.72;5009051;28;20033;-90
2021/01/06 09:35:51;;;;;;;11.32;7.85;;;;;;;5.54;66.91;101020.44;5011489;28;20061;-90
2021/01/06 09:38:35;;;;;;;13.00;7.28;;;;;;;5.60;66.64;101011.53;5021932;28;20077;-96
2021/01/06 09:41:06;;;;;;;10.80;6.93;;;;;;;5.62;65.32;101025.34;5021666;28;20038;-95
2021/01/06 09:43:47;;;;;;;12.82;8.05;;;;;;;5.79;66.40;101022.13;5011332;28;20060;-96
2021/01/06 09:46:31;;;;;;;14.70;7.95;;;;;;;5.93;66.67;101021.59;5013388;28;20022;-94
2021/01/06 09:49:02;;;;;;;14.50;7.63;;;;;;;5.74;66.74;101030.09;5025656;28;20041;-94
2021/01/06 09:51:29;;;;;;;13.18;6.72;;;;;;;5.97;66.43;101014.53;5012747;28;20408;-95
2021/01/06 09:53:58;;;;;;;12.52;7.43;;;;;;;5.55;66.50;100985.69;5013166;28;20031;-96
2021/01/06 09:56:26;;;;;;;12.63;7.85;;;;;;;5.77;67.11;101008.31;5036455;28;20430;-96
2021/01/06 09:58:53;;;;;;;14.15;6.97;;;;;;;5.57;67.14;100994.28;5022607;28;20022;-96
2021/01/06 10:01:33;;;;;;;13.70;7.55;;;;;;;5.73;65.83;100975.47;5013413;28;20022;-96
2021/01/06 10:04:22;;;;;;;10.82;7.20;;;;;;;5.91;66.96;101020.81;5016583;28;20026;-96
2021/01/06 10:06:52;;;;;;;9.48;6.63;;;;;;;6.06;66.28;101008.94;5002900;28;20025;-96
2021/01/06 10:09:24;;;;;;;8.20;6.38;;;;;;;6.18;66.05;101011.09;5018267;28;20042;-93
2021/01/06 10:11:56;;;;;;;12.98;7.07;;;;;;;6.34;65.53;101012.16;5023544;28;20080;-96
2021/01/06 10:14:39;;;;;;;10.60;6.88;;;;;;;5.93;66.63;101021.59;5015709;28;20121;-96
2021/01/06 10:17:23;;;;;;;10.18;7.18;;;;;;;6.22;65.67;101017.00;5016068;28;20136;-96
2021/01/06 10:19:56;;;;;;;8.82;6.28;;;;;;;6.21;64.87;101021.38;5014621;28;20399;-93
2021/01/06 10:22:34;;;;;;;9.55;6.70;;;;;;;6.48;64.91;101026.41;5018781;28;20040;-93
2021/01/06 10:25:21;;;;;;;9.02;6.20;;;;;;;6.68;64.49;101029.03;5018025;28;20033;-93
2021/01/06 10:28:26;;;;;;;12.13;7.78;;;;;;;7.14;64.23;101026.22;5036059;28;20739;-93
2021/01/06 10:31:10;;;;;;;10.98;6.20;;;;;;;7.38;62.60;101024.28;5021432;28;20030;-95
2021/01/06 10:33:59;;;;;;;10.85;7.47;;;;;;;8.14;61.29;101024.28;5024849;28;20030;-93
2021/01/06 10:36:51;;;;;;;11.02;7.00;;;;;;;8.89;59.31;101014.50;5022850;28;20160;-93
2021/01/06 10:39:30;;;;;;;12.60;7.20;;;;;;;8.06;60.94;101021.19;5023056;28;20030;-95
2021/01/06 10:42:06;;;;;;;11.10;7.65;;;;;;;7.76;61.48;101024.31;5028183;28;20038;-93
2021/01/06 10:44:48;;;;;;;9.50;6.38;;;;;;;8.08;60.17;101025.41;5029365;28;20022;-93
2021/01/06 10:47:31;;;;;;;;;;;;;;;8.04;61.23;101015.19;5021714;28;20046;-95
2021/01/06 10:49:58;;;;;;;9.32;6.78;;;;;;;8.05;61.35;101030.78;5021085;28;20187;-95
2021/01/06 10:52:54;;;;;;;11.93;7.05;;;;;;;8.00;60.50;101021.44;5019747;28;20029;-95
2021/01/06 10:55:37;;;;;;;8.20;6.60;;;;;;;7.92;61.08;101019.22;5011308;28;20464;-94
2021/01/06 10:58:09;;;;;;;9.85;6.53;;;;;;;7.57;62.69;101023.47;5016680;28;20027;-96
2021/01/06 11:01:03;;;;;;;10.60;6.85;;;;;;;7.36;62.91;101010.44;5018907;28;20060;-94
2021/01/06 11:03:40;;;;;;;10.05;6.80;;;;;;;7.75;61.25;101012.16;5027786;28;20014;-96
2021/01/06 11:06:38;;;;;;;10.45;6.18;;;;;;;7.74;61.18;101018.28;5018264;28;20065;-94
2021/01/06 11:09:10;;;;;;;6.68;5.68;;;;;;;8.11;61.45;101016.56;5002258;28;20046;-94
2021/01/06 11:12:25;;;;;;;9.07;6.13;;;;;;;8.13;60.28;101012.09;5017982;28;20037;-95
2021/01/06 11:15:12;;;;;;;10.35;6.45;;;;;;;7.91;61.29;101001.81;5037927;28;20010;-95
2021/01/06 11:17:42;;;;;;;8.15;5.53;;;;;;;7.84;60.20;100996.06;5050114;28;20030;-95
2021/01/06 11:20:26;;;;;;;8.70;6.10;;;;;;;8.23;60.71;100996.81;5026872;28;20030;-95
2021/01/06 11:23:27;;;;;;;11.32;6.43;;;;;;;8.19;61.48;100996.13;5018783;28;20026;-96
2021/01/06 11:26:31;;;;;;;8.30;6.22;;;;;;;8.33;61.31;100978.00;5026431;28;20026;-96
2021/01/06 11:29:23;;;;;;;10.55;5.65;;;;;;;8.98;58.60;100974.72;5028878;28;20046;-95
2021/01/06 11:32:00;;;;;;;9.50;6.43;;;;;;;8.94;59.32;100978.44;5042287;28;20026;-95
2021/01/06 11:34:33;;;;;;;9.35;6.07;;;;;;;8.70;59.30;100970.09;5027518;28;20042;-94
2021/01/06 11:37:00;;;;;;;7.90;5.68;;;;;;;8.60;60.34;100974.09;5008681;28;20452;-94
2021/01/06 11:39:38;;;;;;;8.85;6.40;;;;;;;8.33;60.94;100971.88;5029118;28;20029;-96
2021/01/06 11:42:10;;;;;;;7.72;6.05;;;;;;;8.20;59.25;100960.38;5016530;28;20034;-94
2021/01/06 11:45:01;;;;;;;8.38;6.18;;;;;;;8.23;60.77;100963.66;5017860;28;20029;-94
2021/01/06 11:47:34;;;;;;;11.45;6.45;;;;;;;7.84;61.55;100964.69;5016869;28;20041;-93
2021/01/06 11:50:06;;;;;;;15.05;6.72;;;;;;;7.97;62.38;100969.31;5028812;28;20025;-93
2021/01/06 11:52:38;;;;;;;8.68;6.70;;;;;;;7.84;62.52;100959.44;5024279;28;20049;-95
2021/01/06 11:55:12;;;;;;;13.18;7.28;;;;;;;7.45;64.30;100957.78;5022769;28;20018;-95
2021/01/06 11:58:10;;;;;;;8.15;6.80;;;;;;;7.53;64.33;100955.66;5026357;28;20030;-95
2021/01/06 12:00:42;;;;;;;13.30;7.30;;;;;;;7.51;64.38;100949.66;5018095;28;20033;-93